createdAt,value
2017-10-11T00:00:16.021Z,8.02
2017-10-11T00:00:50.202Z,8.07
2017-10-11T00:01:23.968Z,8.23
2017-10-11T00:01:57.675Z,8.13
2017-10-11T00:02:31.381Z,7.65
2017-10-11T00:03:05.081Z,7.25
2017-10-11T00:03:38.798Z,8.13
2017-10-11T00:04:13.278Z,8.43
2017-10-11T00:04:47.003Z,7.50
2017-10-11T00:05:21.476Z,8.20
2017-10-11T00:05:55.506Z,7.65
2017-10-11T00:06:30.001Z,7.53
2017-10-11T00:07:04.482Z,7.50
2017-10-11T00:07:38.201Z,7.78
2017-10-11T00:08:13.129Z,7.40
2017-10-11T00:08:47.603Z,8.00
2017-10-11T00:09:21.313Z,7.53
2017-10-11T00:09:55.114Z,7.75
2017-10-11T00:10:29.590Z,7.37
2017-10-11T00:11:03.313Z,7.57
2017-10-11T00:11:37.792Z,7.80
2017-10-11T00:12:11.493Z,6.87
2017-10-11T00:12:45.203Z,7.55
2017-10-11T00:13:18.923Z,7.50
2017-10-11T00:13:52.633Z,7.45
2017-10-11T00:14:26.337Z,7.70
2017-10-11T00:15:00.052Z,7.70
2017-10-11T00:15:33.758Z,6.78
2017-10-11T00:16:08.540Z,7.57
2017-10-11T00:16:42.381Z,7.95
2017-10-11T00:17:16.104Z,7.47
2017-10-11T00:17:49.821Z,7.53
2017-10-11T00:18:23.538Z,7.18
2017-10-11T00:18:58.021Z,7.25
2017-10-11T00:19:31.724Z,7.62
2017-10-11T00:20:05.448Z,8.13
2017-10-11T00:20:39.150Z,7.40
2017-10-11T00:21:12.886Z,7.35
2017-10-11T00:21:46.836Z,6.85
2017-10-11T00:22:20.540Z,7.55
2017-10-11T00:22:54.251Z,8.27
2017-10-11T00:23:28.181Z,7.03
2017-10-11T00:24:02.668Z,7.28
2017-10-11T00:24:36.380Z,7.37
2017-10-11T00:25:10.924Z,7.40
2017-10-11T00:25:44.686Z,7.15
2017-10-11T00:26:19.170Z,7.75
2017-10-11T00:26:52.884Z,7.90
2017-10-11T00:27:27.357Z,7.95
2017-10-11T00:28:01.066Z,7.87
2017-10-11T00:28:34.789Z,7.35
2017-10-11T00:29:08.513Z,8.05
2017-10-11T00:29:42.240Z,7.90
2017-10-11T00:30:15.606Z,7.75
2017-10-11T00:30:49.312Z,8.20
2017-10-11T00:31:23.051Z,8.50
2017-10-11T00:31:56.756Z,7.90
2017-10-11T00:32:30.453Z,7.50
2017-10-11T00:33:04.160Z,7.53
2017-10-11T00:33:37.873Z,7.22
2017-10-11T00:34:12.385Z,7.60
2017-10-11T00:34:46.865Z,8.07
2017-10-11T00:35:20.569Z,8.48
2017-10-11T00:35:55.057Z,8.55
2017-10-11T00:36:29.036Z,7.93
2017-10-11T00:37:02.799Z,7.20
2017-10-11T00:37:36.540Z,8.32
2017-10-11T00:38:09.564Z,8.35
2017-10-11T00:38:43.276Z,7.28
2017-10-11T00:39:16.981Z,7.55
2017-10-11T00:39:50.680Z,8.18
2017-10-11T00:40:24.526Z,7.85
2017-10-11T00:40:58.236Z,8.00
2017-10-11T00:41:31.994Z,7.62
2017-10-11T00:42:06.284Z,7.22
2017-10-11T00:42:40.591Z,8.20
2017-10-11T00:43:14.358Z,7.15
2017-10-11T00:43:48.070Z,8.10
2017-10-11T00:44:21.437Z,7.55
2017-10-11T00:44:55.149Z,8.13
2017-10-11T00:45:29.650Z,7.50
2017-10-11T00:46:03.367Z,7.55
2017-10-11T00:46:37.098Z,7.70
2017-10-11T00:47:10.809Z,7.72
2017-10-11T00:47:44.514Z,8.65
2017-10-11T00:48:19.005Z,7.53
2017-10-11T00:48:52.709Z,8.65
2017-10-11T00:49:26.517Z,9.25
2017-10-11T00:50:00.985Z,8.45
2017-10-11T00:50:34.690Z,8.55
2017-10-11T00:51:08.402Z,8.82
2017-10-11T00:51:42.928Z,8.45
2017-10-11T00:52:16.626Z,8.93
2017-10-11T00:52:50.342Z,8.30
2017-10-11T00:53:24.055Z,9.20
2017-10-11T00:53:57.757Z,8.75
2017-10-11T00:54:30.791Z,9.25
2017-10-11T00:55:04.153Z,9.30
2017-10-11T00:55:36.982Z,8.38
2017-10-11T00:56:09.992Z,8.77
2017-10-11T00:56:43.057Z,8.80
2017-10-11T00:57:17.152Z,9.88
2017-10-11T00:57:50.940Z,8.95
2017-10-11T00:58:24.722Z,9.18
2017-10-11T00:58:58.239Z,8.95
2017-10-11T00:59:31.825Z,8.70
2017-10-11T01:00:04.933Z,9.02
2017-10-11T01:00:38.313Z,10.38
2017-10-11T01:01:12.103Z,9.18
2017-10-11T01:01:46.260Z,8.82
2017-10-11T01:02:20.748Z,9.45
2017-10-11T01:02:54.544Z,9.35
2017-10-11T01:03:28.256Z,8.93
2017-10-11T01:04:02.384Z,9.20
2017-10-11T01:04:36.142Z,9.45
2017-10-11T01:05:10.616Z,9.32
2017-10-11T01:05:43.980Z,9.05
2017-10-11T01:06:17.705Z,9.43
2017-10-11T01:06:51.436Z,8.65
2017-10-11T01:07:25.150Z,8.82
2017-10-11T01:07:58.504Z,8.98
2017-10-11T01:08:31.881Z,9.70
2017-10-11T01:09:04.933Z,10.30
2017-10-11T01:09:39.417Z,8.80
2017-10-11T01:10:12.824Z,9.10
2017-10-11T01:10:46.551Z,9.82
2017-10-11T01:11:20.300Z,9.45
2017-10-11T01:11:54.030Z,9.40
2017-10-11T01:12:27.765Z,9.10
2017-10-11T01:13:01.487Z,9.68
2017-10-11T01:13:35.961Z,8.52
2017-10-11T01:14:09.669Z,8.68
2017-10-11T01:14:43.407Z,8.60
2017-10-11T01:15:16.430Z,9.13
2017-10-11T01:15:49.453Z,9.02
2017-10-11T01:16:22.516Z,8.82
2017-10-11T01:16:56.616Z,9.57
2017-10-11T01:17:30.326Z,8.82
2017-10-11T01:18:04.036Z,7.95
2017-10-11T01:18:37.795Z,8.70
2017-10-11T01:19:10.819Z,9.00
2017-10-11T01:19:44.531Z,8.07
2017-10-11T01:20:17.898Z,8.32
2017-10-11T01:20:51.287Z,8.50
2017-10-11T01:21:24.904Z,9.20
2017-10-11T01:21:59.730Z,8.55
2017-10-11T01:22:32.754Z,8.63
2017-10-11T01:23:05.802Z,9.50
2017-10-11T01:23:38.821Z,8.80
2017-10-11T01:24:11.861Z,8.75
2017-10-11T01:24:45.256Z,10.25
2017-10-11T01:25:18.287Z,10.15
2017-10-11T01:25:51.654Z,8.82
2017-10-11T01:26:25.052Z,8.70
2017-10-11T01:26:58.077Z,8.98
2017-10-11T01:27:31.813Z,9.27
2017-10-11T01:28:05.189Z,9.50
2017-10-11T01:28:38.213Z,8.68
2017-10-11T01:29:11.046Z,8.60
2017-10-11T01:29:44.099Z,9.32
2017-10-11T01:30:17.899Z,8.57
2017-10-11T01:30:50.939Z,10.00
2017-10-11T01:31:23.973Z,9.90
2017-10-11T01:31:57.040Z,8.98
2017-10-11T01:32:30.057Z,8.57
2017-10-11T01:33:03.239Z,9.77
2017-10-11T01:33:37.773Z,8.48
2017-10-11T01:34:11.574Z,8.85
2017-10-11T01:34:44.625Z,9.43
2017-10-11T01:35:18.770Z,9.50
2017-10-11T01:35:51.920Z,9.30
2017-10-11T01:36:25.713Z,9.45
2017-10-11T01:36:59.520Z,9.80
2017-10-11T01:37:32.549Z,10.45
2017-10-11T01:38:07.087Z,8.98
2017-10-11T01:38:40.905Z,8.63
2017-10-11T01:39:14.371Z,10.38
2017-10-11T01:39:47.564Z,10.25
2017-10-11T01:40:20.589Z,9.70
2017-10-11T01:40:53.614Z,9.48
2017-10-11T01:41:26.640Z,9.27
2017-10-11T01:42:01.203Z,9.43
2017-10-11T01:42:34.229Z,8.43
2017-10-11T01:43:07.670Z,10.10
2017-10-11T01:43:41.039Z,9.10
2017-10-11T01:44:14.064Z,8.80
2017-10-11T01:44:47.092Z,9.50
2017-10-11T01:45:20.109Z,8.77
2017-10-11T01:45:53.291Z,9.70
2017-10-11T01:46:26.313Z,8.90
2017-10-11T01:46:59.684Z,9.55
2017-10-11T01:47:33.055Z,10.23
2017-10-11T01:48:07.174Z,9.50
2017-10-11T01:48:40.025Z,10.10
2017-10-11T01:49:13.839Z,9.77
2017-10-11T01:49:46.856Z,9.85
2017-10-11T01:50:19.917Z,8.98
2017-10-11T01:50:52.960Z,10.90
2017-10-11T01:51:26.005Z,10.38
2017-10-11T01:51:59.845Z,10.52
2017-10-11T01:52:33.577Z,10.35
2017-10-11T01:53:07.003Z,9.52
2017-10-11T01:53:40.036Z,10.15
2017-10-11T01:54:13.404Z,10.00
2017-10-11T01:54:46.430Z,10.55
2017-10-11T01:55:19.498Z,10.60
2017-10-11T01:55:54.467Z,10.25
2017-10-11T01:56:27.520Z,11.25
2017-10-11T01:57:01.240Z,10.85
2017-10-11T01:57:34.972Z,10.70
2017-10-11T01:58:09.131Z,9.90
2017-10-11T01:58:42.507Z,10.85
2017-10-11T01:59:16.237Z,10.50
2017-10-11T01:59:50.750Z,11.65
2017-10-11T02:00:25.259Z,11.75
2017-10-11T02:00:59.749Z,11.70
2017-10-11T02:01:33.474Z,11.45
2017-10-11T02:02:07.042Z,11.35
2017-10-11T02:02:41.177Z,11.18
2017-10-11T02:03:15.172Z,10.65
2017-10-11T02:03:48.540Z,10.95
2017-10-11T02:04:22.256Z,10.70
2017-10-11T02:04:55.972Z,12.30
2017-10-11T02:05:28.996Z,12.80
2017-10-11T02:06:02.362Z,12.00
2017-10-11T02:06:36.876Z,13.15
2017-10-11T02:07:11.181Z,12.73
2017-10-11T02:07:45.308Z,11.93
2017-10-11T02:08:18.860Z,13.73
2017-10-11T02:08:53.349Z,12.43
2017-10-11T02:09:26.536Z,13.00
2017-10-11T02:10:00.843Z,11.93
2017-10-11T02:10:34.565Z,12.30
2017-10-11T02:11:08.273Z,11.73
2017-10-11T02:11:42.017Z,12.18
2017-10-11T02:12:15.529Z,12.13
2017-10-11T02:12:49.060Z,12.35
2017-10-11T02:13:22.912Z,11.68
2017-10-11T02:13:56.638Z,11.85
2017-10-11T02:14:30.170Z,12.50
2017-10-11T02:15:03.877Z,12.00
2017-10-11T02:15:37.244Z,12.05
2017-10-11T02:16:11.752Z,11.70
2017-10-11T02:16:45.300Z,11.48
2017-10-11T02:17:18.845Z,11.70
2017-10-11T02:17:52.373Z,13.35
2017-10-11T02:18:26.245Z,11.85
2017-10-11T02:18:59.966Z,12.05
2017-10-11T02:19:33.687Z,13.23
2017-10-11T02:20:08.200Z,12.02
2017-10-11T02:20:42.687Z,12.50
2017-10-11T02:21:16.417Z,14.55
2017-10-11T02:21:49.808Z,12.90
2017-10-11T02:22:23.265Z,14.15
2017-10-11T02:22:57.401Z,11.95
2017-10-11T02:23:31.065Z,12.70
2017-10-11T02:24:04.431Z,12.68
2017-10-11T02:24:38.602Z,13.65
2017-10-11T02:25:11.633Z,13.00
2017-10-11T02:25:45.753Z,13.88
2017-10-11T02:26:19.553Z,13.10
2017-10-11T02:26:53.289Z,12.73
2017-10-11T02:27:27.785Z,12.68
2017-10-11T02:28:01.549Z,13.50
2017-10-11T02:28:35.605Z,12.25
2017-10-11T02:29:09.366Z,12.73
2017-10-11T02:29:42.948Z,13.02
2017-10-11T02:30:16.654Z,13.30
2017-10-11T02:30:51.145Z,13.18
2017-10-11T02:31:24.893Z,13.75
2017-10-11T02:31:58.613Z,13.07
2017-10-11T02:32:32.447Z,12.90
2017-10-11T02:33:06.545Z,14.32
2017-10-11T02:33:40.864Z,12.43
2017-10-11T02:34:14.642Z,11.93
2017-10-11T02:34:49.133Z,13.10
2017-10-11T02:35:22.864Z,12.75
2017-10-11T02:35:56.632Z,12.27
2017-10-11T02:36:31.120Z,12.80
2017-10-11T02:37:04.847Z,13.13
2017-10-11T02:37:39.317Z,14.27
2017-10-11T02:38:13.046Z,13.05
2017-10-11T02:38:46.805Z,13.45
2017-10-11T02:39:20.532Z,13.23
2017-10-11T02:39:54.273Z,14.75
2017-10-11T02:40:27.995Z,13.88
2017-10-11T02:41:02.481Z,13.75
2017-10-11T02:41:36.211Z,13.23
2017-10-11T02:42:09.967Z,13.65
2017-10-11T02:42:43.765Z,14.60
2017-10-11T02:43:17.487Z,15.50
2017-10-11T02:43:51.340Z,14.27
2017-10-11T02:44:25.084Z,14.70
2017-10-11T02:44:58.793Z,14.48
2017-10-11T02:45:32.547Z,13.40
2017-10-11T02:46:06.503Z,14.18
2017-10-11T02:46:40.261Z,13.13
2017-10-11T02:47:14.216Z,14.73
2017-10-11T02:47:48.695Z,14.93
2017-10-11T02:48:22.438Z,15.10
2017-10-11T02:48:56.553Z,14.52
2017-10-11T02:49:30.002Z,14.50
2017-10-11T02:50:04.490Z,15.13
2017-10-11T02:50:38.306Z,14.02
2017-10-11T02:51:12.778Z,14.70
2017-10-11T02:51:46.496Z,15.45
2017-10-11T02:52:21.033Z,14.60
2017-10-11T02:52:54.780Z,14.60
2017-10-11T02:53:28.501Z,15.30
2017-10-11T02:54:02.085Z,14.10
2017-10-11T02:54:36.658Z,16.00
2017-10-11T02:55:10.417Z,17.37
2017-10-11T02:55:44.125Z,16.00
2017-10-11T02:56:17.896Z,15.15
2017-10-11T02:56:51.258Z,15.40
2017-10-11T02:57:24.972Z,15.95
2017-10-11T02:57:58.677Z,16.62
2017-10-11T02:58:32.385Z,15.18
2017-10-11T02:59:06.440Z,15.68
2017-10-11T02:59:40.174Z,15.85
2017-10-11T03:00:13.948Z,15.68
2017-10-11T03:00:47.674Z,15.75
2017-10-11T03:01:21.403Z,17.17
2017-10-11T03:01:55.113Z,15.75
2017-10-11T03:02:28.840Z,16.67
2017-10-11T03:03:02.596Z,15.02
2017-10-11T03:03:36.317Z,15.82
2017-10-11T03:04:10.815Z,16.48
2017-10-11T03:04:44.544Z,14.43
2017-10-11T03:05:19.036Z,16.77
2017-10-11T03:05:53.461Z,16.23
2017-10-11T03:06:27.193Z,15.00
2017-10-11T03:07:00.905Z,14.93
2017-10-11T03:07:34.652Z,15.95
2017-10-11T03:08:08.384Z,15.50
2017-10-11T03:08:42.114Z,14.32
2017-10-11T03:09:16.641Z,14.55
2017-10-11T03:09:50.373Z,14.07
2017-10-11T03:10:24.206Z,14.23
2017-10-11T03:10:58.810Z,15.15
2017-10-11T03:11:33.286Z,15.20
2017-10-11T03:12:06.993Z,13.95
2017-10-11T03:12:40.518Z,15.00
2017-10-11T03:13:14.259Z,14.70
2017-10-11T03:13:47.976Z,14.75
2017-10-11T03:14:22.814Z,14.52
2017-10-11T03:14:56.525Z,14.63
2017-10-11T03:15:30.245Z,14.63
2017-10-11T03:16:03.961Z,15.05
2017-10-11T03:16:38.452Z,15.50
2017-10-11T03:17:12.188Z,13.98
2017-10-11T03:17:45.900Z,14.40
2017-10-11T03:18:19.622Z,14.15
2017-10-11T03:18:53.340Z,13.52
2017-10-11T03:19:28.166Z,14.25
2017-10-11T03:20:01.887Z,12.98
2017-10-11T03:20:35.610Z,13.25
2017-10-11T03:21:09.373Z,14.35
2017-10-11T03:21:43.097Z,13.30
2017-10-11T03:22:16.832Z,13.85
2017-10-11T03:22:50.578Z,12.45
2017-10-11T03:23:24.311Z,11.18
2017-10-11T03:23:58.044Z,12.48
2017-10-11T03:24:32.101Z,11.73
2017-10-11T03:25:05.826Z,11.30
2017-10-11T03:25:39.540Z,11.20
2017-10-11T03:26:13.253Z,11.32
2017-10-11T03:26:47.732Z,8.63
2017-10-11T03:27:21.352Z,9.23
2017-10-11T03:27:55.837Z,9.70
2017-10-11T03:28:29.549Z,9.20
2017-10-11T03:29:04.021Z,8.63
2017-10-11T03:29:37.765Z,8.90
2017-10-11T03:30:11.480Z,9.10
2017-10-11T03:30:45.202Z,8.10
2017-10-11T03:31:20.307Z,8.63
2017-10-11T03:31:54.021Z,8.57
2017-10-11T03:32:27.732Z,9.05
2017-10-11T03:33:02.220Z,9.13
2017-10-11T03:33:35.919Z,8.95
2017-10-11T03:34:09.620Z,8.57
2017-10-11T03:34:44.120Z,8.32
2017-10-11T03:35:17.842Z,9.57
2017-10-11T03:35:51.614Z,8.27
2017-10-11T03:36:25.751Z,8.80
2017-10-11T03:36:59.205Z,8.90
2017-10-11T03:37:33.706Z,7.80
2017-10-11T03:38:07.839Z,7.90
2017-10-11T03:38:41.574Z,7.87
2017-10-11T03:39:15.277Z,7.35
2017-10-11T03:39:49.783Z,8.45
2017-10-11T03:40:23.133Z,7.72
2017-10-11T03:40:56.864Z,8.10
2017-10-11T03:41:30.574Z,8.25
2017-10-11T03:42:05.047Z,7.30
2017-10-11T03:42:38.782Z,7.25
2017-10-11T03:43:12.505Z,8.45
2017-10-11T03:43:46.240Z,8.15
2017-10-11T03:44:20.728Z,7.95
2017-10-11T03:44:54.498Z,7.68
2017-10-11T03:45:28.219Z,8.10
2017-10-11T03:46:02.597Z,8.70
2017-10-11T03:46:36.316Z,9.05
2017-10-11T03:47:10.031Z,8.80
2017-10-11T03:47:44.512Z,9.35
2017-10-11T03:48:18.221Z,8.45
2017-10-11T03:48:52.746Z,10.15
2017-10-11T03:49:26.473Z,10.55
2017-10-11T03:50:00.547Z,8.75
2017-10-11T03:50:33.580Z,9.60
2017-10-11T03:51:07.295Z,9.50
2017-10-11T03:51:41.771Z,9.65
2017-10-11T03:52:15.481Z,9.90
2017-10-11T03:52:49.974Z,10.70
2017-10-11T03:53:24.466Z,10.43
2017-10-11T03:53:58.178Z,9.40
2017-10-11T03:54:32.662Z,11.52
2017-10-11T03:55:06.744Z,10.32
2017-10-11T03:55:40.466Z,10.82
2017-10-11T03:56:14.189Z,9.98
2017-10-11T03:56:47.918Z,10.98
2017-10-11T03:57:21.645Z,11.38
2017-10-11T03:57:55.977Z,11.23
2017-10-11T03:58:29.689Z,10.90
2017-10-11T03:59:03.405Z,11.27
2017-10-11T03:59:37.134Z,10.93
2017-10-11T04:00:11.771Z,11.70
2017-10-11T04:00:45.516Z,10.75
2017-10-11T04:01:18.967Z,11.60
2017-10-11T04:01:52.678Z,9.30
2017-10-11T04:02:26.382Z,9.80
2017-10-11T04:03:00.094Z,9.50
2017-10-11T04:03:34.580Z,9.38
2017-10-11T04:04:08.317Z,9.82
2017-10-11T04:04:42.036Z,8.57
2017-10-11T04:05:15.773Z,9.38
2017-10-11T04:05:50.244Z,9.85
2017-10-11T04:06:23.951Z,8.60
2017-10-11T04:06:57.710Z,9.10
2017-10-11T04:07:31.411Z,8.13
2017-10-11T04:08:05.368Z,8.23
2017-10-11T04:08:39.841Z,9.35
2017-10-11T04:09:13.535Z,8.43
2017-10-11T04:09:47.234Z,8.63
2017-10-11T04:10:20.945Z,8.27
2017-10-11T04:10:55.416Z,8.90
2017-10-11T04:11:29.114Z,9.05
2017-10-11T04:12:02.368Z,8.63
2017-10-11T04:12:35.891Z,8.30
2017-10-11T04:13:10.380Z,8.32
2017-10-11T04:13:44.087Z,7.95
2017-10-11T04:14:17.811Z,7.50
2017-10-11T04:14:51.561Z,7.90
2017-10-11T04:15:25.588Z,8.05
2017-10-11T04:15:59.304Z,7.95
2017-10-11T04:16:33.019Z,8.90
2017-10-11T04:17:06.559Z,8.98
2017-10-11T04:17:40.537Z,8.50
2017-10-11T04:18:14.861Z,9.10
2017-10-11T04:18:48.599Z,9.55
2017-10-11T04:19:22.131Z,9.73
2017-10-11T04:19:56.610Z,8.80
2017-10-11T04:20:31.142Z,10.05
2017-10-11T04:21:04.680Z,11.00
2017-10-11T04:21:38.209Z,9.60
2017-10-11T04:22:12.541Z,10.10
2017-10-11T04:22:46.272Z,11.32
2017-10-11T04:23:19.818Z,11.00
2017-10-11T04:23:53.357Z,11.75
2017-10-11T04:24:26.884Z,12.05
2017-10-11T04:25:00.448Z,11.70
2017-10-11T04:25:34.766Z,12.57
2017-10-11T04:26:08.299Z,13.50
2017-10-11T04:26:41.831Z,13.57
2017-10-11T04:27:16.115Z,15.88
2017-10-11T04:27:50.416Z,13.50
2017-10-11T04:28:23.974Z,15.35
2017-10-11T04:28:57.528Z,14.68
2017-10-11T04:29:32.617Z,16.20
2017-10-11T04:30:06.906Z,15.63
2017-10-11T04:30:40.716Z,17.05
2017-10-11T04:31:15.038Z,17.85
2017-10-11T04:31:49.342Z,17.73
2017-10-11T04:32:23.641Z,18.05
2017-10-11T04:32:57.928Z,18.00
2017-10-11T04:33:31.456Z,17.70
2017-10-11T04:34:05.023Z,18.67
2017-10-11T04:34:39.322Z,18.02
2017-10-11T04:35:13.805Z,18.65
2017-10-11T04:35:47.638Z,19.40
2017-10-11T04:36:21.157Z,19.35
2017-10-11T04:36:54.693Z,20.88
2017-10-11T04:37:29.194Z,19.65
2017-10-11T04:38:03.505Z,19.87
2017-10-11T04:38:37.797Z,19.17
2017-10-11T04:39:12.113Z,19.73
2017-10-11T04:39:46.424Z,19.87
2017-10-11T04:40:20.729Z,19.00
2017-10-11T04:40:55.248Z,19.70
2017-10-11T04:41:28.792Z,19.35
2017-10-11T04:42:02.325Z,18.45
2017-10-11T04:42:35.859Z,20.45
2017-10-11T04:43:09.486Z,19.77
2017-10-11T04:43:43.784Z,19.37
2017-10-11T04:44:18.113Z,21.33
2017-10-11T04:44:51.638Z,20.33
2017-10-11T04:45:25.181Z,18.77
2017-10-11T04:45:59.066Z,20.58
2017-10-11T04:46:33.372Z,20.45
2017-10-11T04:47:06.909Z,20.70
2017-10-11T04:47:40.438Z,20.20
2017-10-11T04:48:14.735Z,20.90
2017-10-11T04:48:49.025Z,20.85
2017-10-11T04:49:22.555Z,20.33
2017-10-11T04:49:56.094Z,20.23
2017-10-11T04:50:29.649Z,20.30
2017-10-11T04:51:03.199Z,20.70
2017-10-11T04:51:36.735Z,21.17
2017-10-11T04:52:10.278Z,20.92
2017-10-11T04:52:44.001Z,20.50
2017-10-11T04:53:17.720Z,12.50
2017-10-11T04:53:51.420Z,8.45
2017-10-11T04:54:25.160Z,7.82
2017-10-11T04:54:58.875Z,6.97
2017-10-11T04:55:32.609Z,5.10
2017-10-11T04:56:07.023Z,4.72
2017-10-11T04:56:41.299Z,5.53
2017-10-11T04:57:15.019Z,4.50
2017-10-11T04:57:48.717Z,4.80
2017-10-11T04:58:22.434Z,4.00
2017-10-11T04:58:56.140Z,3.42
2017-10-11T04:59:29.840Z,4.03
2017-10-11T05:00:03.540Z,3.28
2017-10-11T05:00:37.242Z,3.42
2017-10-11T05:01:11.737Z,3.47
2017-10-11T05:01:45.459Z,2.47
2017-10-11T05:02:19.927Z,2.92
2017-10-11T05:02:53.628Z,2.70
2017-10-11T05:03:27.344Z,2.80
2017-10-11T05:04:01.820Z,2.90
2017-10-11T05:04:35.529Z,2.78
2017-10-11T05:05:10.017Z,2.42
2017-10-11T05:05:43.716Z,2.12
2017-10-11T05:06:17.751Z,2.62
2017-10-11T05:06:51.465Z,2.17
2017-10-11T05:07:25.162Z,1.95
2017-10-11T05:07:58.861Z,1.77
2017-10-11T05:08:32.569Z,2.33
2017-10-11T05:09:06.260Z,2.30
2017-10-11T05:09:39.968Z,2.12
2017-10-11T05:10:14.479Z,2.08
2017-10-11T05:10:48.954Z,1.95
2017-10-11T05:11:23.001Z,1.90
2017-10-11T05:11:56.714Z,1.70
2017-10-11T05:12:30.421Z,2.00
2017-10-11T05:13:04.174Z,1.70
2017-10-11T05:13:37.868Z,1.77
2017-10-11T05:14:11.560Z,1.90
2017-10-11T05:14:45.288Z,2.05
2017-10-11T05:15:18.990Z,1.90
2017-10-11T05:15:53.240Z,1.67
2017-10-11T05:16:26.957Z,2.03
2017-10-11T05:17:00.660Z,2.12
2017-10-11T05:17:34.364Z,1.90
2017-10-11T05:18:08.062Z,1.55
2017-10-11T05:18:41.760Z,2.05
2017-10-11T05:19:16.227Z,1.73
2017-10-11T05:19:49.940Z,1.67
2017-10-11T05:20:23.640Z,2.20
2017-10-11T05:20:56.997Z,2.03
2017-10-11T05:21:31.061Z,2.50
2017-10-11T05:22:04.784Z,2.42
2017-10-11T05:22:38.147Z,2.17
2017-10-11T05:23:11.860Z,2.10
2017-10-11T05:23:45.557Z,2.20
2017-10-11T05:24:19.261Z,1.60
2017-10-11T05:24:52.961Z,2.47
2017-10-11T05:25:26.665Z,2.10
2017-10-11T05:26:01.132Z,2.00
2017-10-11T05:26:35.193Z,2.30
2017-10-11T05:27:09.656Z,1.95
2017-10-11T05:27:44.122Z,1.85
2017-10-11T05:28:17.830Z,2.10
2017-10-11T05:28:51.566Z,2.10
2017-10-11T05:29:26.056Z,2.17
2017-10-11T05:29:59.762Z,2.15
2017-10-11T05:30:34.231Z,2.03
2017-10-11T05:31:07.941Z,2.30
2017-10-11T05:31:41.672Z,2.62
2017-10-11T05:32:16.139Z,1.77
2017-10-11T05:32:49.868Z,2.30
2017-10-11T05:33:23.576Z,2.45
2017-10-11T05:33:57.277Z,2.30
2017-10-11T05:34:30.969Z,2.47
2017-10-11T05:35:04.668Z,2.47
2017-10-11T05:35:38.372Z,2.58
2017-10-11T05:36:12.091Z,2.50
2017-10-11T05:36:46.135Z,2.65
2017-10-11T05:37:19.838Z,2.40
2017-10-11T05:37:53.548Z,2.70
2017-10-11T05:38:27.250Z,2.90
2017-10-11T05:39:00.953Z,2.80
2017-10-11T05:39:37.864Z,3.10
2017-10-11T05:40:11.575Z,2.33
2017-10-11T05:40:45.281Z,2.75
2017-10-11T05:41:18.992Z,2.80
2017-10-11T05:41:53.809Z,2.85
2017-10-11T05:42:28.289Z,2.72
2017-10-11T05:43:01.984Z,3.00
2017-10-11T05:43:35.698Z,2.42
2017-10-11T05:44:09.434Z,2.75
2017-10-11T05:44:43.176Z,2.28
2017-10-11T05:45:17.644Z,2.80
2017-10-11T05:45:51.366Z,2.60
2017-10-11T05:46:25.323Z,2.37
2017-10-11T05:46:59.065Z,3.30
2017-10-11T05:47:33.559Z,2.95
2017-10-11T05:48:07.258Z,3.12
2017-10-11T05:48:41.386Z,2.83
2017-10-11T05:49:15.137Z,2.87
2017-10-11T05:49:48.849Z,3.28
2017-10-11T05:50:23.322Z,2.90
2017-10-11T05:50:57.012Z,3.10
2017-10-11T05:51:30.708Z,2.50
2017-10-11T05:52:04.755Z,2.40
2017-10-11T05:52:38.521Z,2.90
2017-10-11T05:53:12.994Z,3.00
2017-10-11T05:53:46.702Z,2.62
2017-10-11T05:54:20.410Z,2.97
2017-10-11T05:54:54.880Z,2.72
2017-10-11T05:55:28.599Z,3.10
2017-10-11T05:56:02.321Z,3.28
2017-10-11T05:56:36.219Z,2.60
2017-10-11T05:57:10.296Z,2.85
2017-10-11T05:57:44.767Z,3.75
2017-10-11T05:58:18.476Z,2.97
2017-10-11T05:58:52.181Z,3.00
2017-10-11T05:59:26.653Z,3.47
2017-10-11T06:00:00.408Z,3.75
2017-10-11T06:00:34.119Z,4.40
2017-10-11T06:01:07.825Z,3.87
2017-10-11T06:01:41.540Z,11.65
2017-10-11T06:02:15.265Z,8.25
2017-10-11T06:02:48.966Z,5.90
2017-10-11T06:03:22.673Z,5.15
2017-10-11T06:03:56.377Z,5.40
2017-10-11T06:04:30.085Z,5.97
2017-10-11T06:05:03.800Z,4.78
2017-10-11T06:05:37.499Z,5.43
2017-10-11T06:06:11.965Z,5.82
2017-10-11T06:06:45.683Z,5.55
2017-10-11T06:07:19.681Z,5.80
2017-10-11T06:07:54.154Z,7.43
2017-10-11T06:08:27.865Z,7.15
2017-10-11T06:09:02.908Z,8.70
2017-10-11T06:09:37.394Z,8.57
2017-10-11T06:10:11.120Z,9.02
2017-10-11T06:10:44.855Z,9.65
2017-10-11T06:11:18.570Z,9.55
2017-10-11T06:11:52.287Z,9.57
2017-10-11T06:12:26.438Z,12.50
2017-10-11T06:13:00.158Z,12.80
2017-10-11T06:13:34.641Z,12.95
2017-10-11T06:14:08.370Z,14.13
2017-10-11T06:14:42.866Z,14.82
2017-10-11T06:15:17.368Z,15.40
2017-10-11T06:15:52.328Z,15.68
2017-10-11T06:16:26.042Z,15.30
2017-10-11T06:16:59.776Z,17.75
2017-10-11T06:17:34.608Z,19.40
2017-10-11T06:18:08.344Z,18.75
2017-10-11T06:18:42.063Z,19.58
2017-10-11T06:19:15.773Z,20.35
2017-10-11T06:19:50.267Z,21.20
2017-10-11T06:20:24.753Z,21.52
2017-10-11T06:20:58.485Z,23.87
2017-10-11T06:21:32.236Z,23.85
2017-10-11T06:22:05.954Z,22.55
2017-10-11T06:22:40.793Z,23.92
2017-10-11T06:23:14.523Z,22.90
2017-10-11T06:23:48.266Z,22.00
2017-10-11T06:24:22.001Z,22.62
2017-10-11T06:24:55.723Z,23.17
2017-10-11T06:25:29.436Z,24.00
2017-10-11T06:26:03.917Z,25.50
2017-10-11T06:26:37.640Z,23.87
2017-10-11T06:27:12.129Z,24.58
2017-10-11T06:27:46.928Z,25.37
2017-10-11T06:28:20.636Z,24.87
2017-10-11T06:28:55.117Z,24.70
2017-10-11T06:29:28.836Z,24.52
2017-10-11T06:30:03.342Z,23.85
2017-10-11T06:30:37.055Z,24.50
2017-10-11T06:31:10.780Z,24.67
2017-10-11T06:31:44.490Z,25.40
2017-10-11T06:32:18.227Z,24.87
2017-10-11T06:32:53.132Z,25.52
2017-10-11T06:33:27.631Z,24.35
2017-10-11T06:34:01.352Z,25.55
2017-10-11T06:34:35.078Z,24.95
2017-10-11T06:35:08.812Z,24.08
2017-10-11T06:35:43.289Z,24.50
2017-10-11T06:36:17.007Z,24.80
2017-10-11T06:36:51.484Z,25.00
2017-10-11T06:37:25.206Z,23.75
2017-10-11T06:37:59.233Z,25.40
2017-10-11T06:38:32.959Z,26.90
2017-10-11T06:39:06.689Z,24.60
2017-10-11T06:39:41.159Z,26.27
2017-10-11T06:40:14.888Z,24.95
2017-10-11T06:40:49.372Z,24.27
2017-10-11T06:41:23.116Z,24.83
2017-10-11T06:41:56.830Z,25.75
2017-10-11T06:42:31.026Z,25.80
2017-10-11T06:43:04.979Z,25.33
2017-10-11T06:43:39.493Z,22.75
2017-10-11T06:44:13.201Z,23.80
2017-10-11T06:44:46.932Z,25.20
2017-10-11T06:45:20.652Z,22.70
2017-10-11T06:45:55.128Z,24.95
2017-10-11T06:46:28.844Z,25.15
2017-10-11T06:47:02.564Z,23.27
2017-10-11T06:47:36.275Z,24.27
2017-10-11T06:48:10.348Z,25.20
2017-10-11T06:48:44.080Z,24.98
2017-10-11T06:49:17.821Z,24.67
2017-10-11T06:49:52.346Z,23.73
2017-10-11T06:50:26.066Z,24.50
2017-10-11T06:50:59.786Z,24.40
2017-10-11T06:51:33.510Z,23.40
2017-10-11T06:52:07.989Z,25.33
2017-10-11T06:52:41.698Z,22.65
2017-10-11T06:53:16.534Z,24.95
2017-10-11T06:53:50.268Z,24.17
2017-10-11T06:54:23.978Z,23.80
2017-10-11T06:54:57.705Z,23.40
2017-10-11T06:55:31.431Z,23.90
2017-10-11T06:56:05.070Z,23.12
2017-10-11T06:56:39.365Z,25.50
2017-10-11T06:57:13.860Z,23.87
2017-10-11T06:57:47.578Z,23.00
2017-10-11T06:58:21.476Z,22.70
2017-10-11T06:58:54.846Z,23.65
2017-10-11T06:59:28.982Z,24.55
2017-10-11T07:00:02.748Z,24.70
2017-10-11T07:00:36.506Z,24.50
2017-10-11T07:01:10.326Z,25.12
2017-10-11T07:01:44.809Z,23.80
2017-10-11T07:02:18.522Z,24.40
2017-10-11T07:02:53.134Z,24.23
2017-10-11T07:03:27.884Z,24.20
2017-10-11T07:04:01.627Z,24.40
2017-10-11T07:04:35.357Z,25.50
2017-10-11T07:05:09.062Z,25.17
2017-10-11T07:05:42.792Z,24.20
2017-10-11T07:06:16.525Z,23.05
2017-10-11T07:06:50.282Z,23.92
2017-10-11T07:07:24.792Z,22.30
2017-10-11T07:07:59.288Z,21.95
2017-10-11T07:08:33.134Z,22.62
2017-10-11T07:09:06.841Z,23.85
2017-10-11T07:09:40.367Z,27.08
2017-10-11T07:10:13.901Z,25.35
2017-10-11T07:10:47.613Z,25.08
2017-10-11T07:11:21.365Z,23.12
2017-10-11T07:11:55.080Z,24.10
2017-10-11T07:12:28.799Z,26.02
2017-10-11T07:13:02.537Z,25.20
2017-10-11T07:13:36.644Z,23.55
2017-10-11T07:14:10.393Z,25.08
2017-10-11T07:14:44.101Z,23.25
2017-10-11T07:15:18.594Z,23.85
2017-10-11T07:15:52.325Z,23.05
2017-10-11T07:16:25.786Z,24.17
2017-10-11T07:17:00.277Z,23.67
2017-10-11T07:17:34.794Z,23.73
2017-10-11T07:18:09.283Z,24.02
2017-10-11T07:18:44.667Z,24.12
2017-10-11T07:19:18.384Z,24.42
2017-10-11T07:19:52.105Z,23.70
2017-10-11T07:20:25.838Z,23.77
2017-10-11T07:20:59.284Z,24.30
2017-10-11T07:21:32.808Z,24.90
2017-10-11T07:22:06.357Z,23.77
2017-10-11T07:22:40.836Z,24.20
2017-10-11T07:23:14.547Z,23.23